Time;durP1;ratioP1;P1;durP2;ratioP2;P2;SDS_P1;SDS_P2;PMS_P1;PMS_P2;Temp;Humidity;BMP_temperature;BMP_pressure;BME280_temperature;BME280_humidity;BME280_pressure;Samples;Min_cycle;Max_cycle;Signal;HPM_P1;HPM_P2
2024/01/20 00:02:23;;;;;;;24.52;14.75;;;;;;;-1.44;100.00;102572.66;4988676;28;20074;-75
2024/01/20 00:04:51;;;;;;;29.40;15.50;;;;;;;-1.46;100.00;102580.06;4994514;28;20081;-75
2024/01/20 00:07:19;;;;;;;23.42;14.18;;;;;;;-1.50;100.00;102579.13;4996246;28;20131;-75
2024/01/20 00:09:45;;;;;;;27.45;15.02;;;;;;;-1.50;100.00;102578.38;4993991;28;20138;-76
2024/01/20 00:12:17;;;;;;;26.67;14.15;;;;;;;-1.53;100.00;102571.94;4991187;28;20542;-76
2024/01/20 00:14:45;;;;;;;28.33;14.15;;;;;;;-1.54;100.00;102572.25;4992171;28;20496;-76
2024/01/20 00:17:12;;;;;;;22.65;14.15;;;;;;;-1.55;100.00;102573.31;4991788;28;20039;-76
2024/01/20 00:19:51;;;;;;;23.10;14.27;;;;;;;-1.57;100.00;102573.63;4996942;28;20097;-77
2024/01/20 00:22:21;;;;;;;27.80;15.35;;;;;;;-1.57;100.00;102575.47;4992525;28;20070;-76
2024/01/20 00:24:49;;;;;;;22.80;14.15;;;;;;;-1.60;100.00;102571.63;4992194;28;20540;-76
2024/01/20 00:27:15;;;;;;;23.42;14.48;;;;;;;-1.63;100.00;102579.34;4991938;28;20046;-76
2024/01/20 00:29:42;;;;;;;25.08;13.52;;;;;;;-1.64;100.00;102575.19;4996180;28;20134;-77
2024/01/20 00:32:09;;;;;;;32.55;16.65;;;;;;;-1.65;100.00;102573.66;4991908;28;20051;-77
2024/01/20 00:34:36;;;;;;;31.25;16.73;;;;;;;-1.66;100.00;102574.75;4992478;28;20433;-77
2024/01/20 00:37:22;;;;;;;27.77;14.82;;;;;;;-1.69;100.00;102571.69;4993112;28;20069;-77
2024/01/20 00:39:49;;;;;;;22.33;13.52;;;;;;;-1.69;100.00;102569.06;5000060;28;20074;-77
2024/01/20 00:42:15;;;;;;;25.58;14.70;;;;;;;-1.71;100.00;102568.59;4994760;28;20955;-76
2024/01/20 00:44:42;;;;;;;26.55;14.77;;;;;;;-1.72;100.00;102574.13;4991124;28;20051;-76
2024/01/20 00:47:09;;;;;;;25.65;14.20;;;;;;;-1.75;100.00;102567.69;4994771;28;20061;-79
2024/01/20 00:49:36;;;;;;;30.50;15.65;;;;;;;-1.74;100.00;102566.63;4999413;28;20058;-79
2024/01/20 00:52:03;;;;;;;30.38;14.82;;;;;;;-1.77;100.00;102554.19;4996896;28;20157;-78
2024/01/20 00:54:29;;;;;;;30.42;15.02;;;;;;;-1.78;100.00;102568.31;4993651;28;20055;-78
2024/01/20 00:56:56;;;;;;;31.58;15.30;;;;;;;-1.80;100.00;102560.03;4993288;28;20073;-78
2024/01/20 00:59:22;;;;;;;30.73;15.00;;;;;;;-1.81;100.00;102563.72;4996685;28;20138;-79
2024/01/20 01:01:49;;;;;;;28.83;14.73;;;;;;;-1.82;100.00;102569.25;4995564;28;20074;-79
2024/01/20 01:04:16;;;;;;;34.78;15.43;;;;;;;-1.85;100.00;102570.63;4992429;28;20132;-79
2024/01/20 01:06:42;;;;;;;27.10;14.50;;;;;;;-1.86;100.00;102571.69;4994280;28;20104;-79
2024/01/20 01:09:09;;;;;;;30.23;13.68;;;;;;;-1.89;100.00;102574.16;4994861;28;20216;-78
2024/01/20 01:11:36;;;;;;;25.92;14.73;;;;;;;-1.91;100.00;102571.09;4993555;28;20483;-79
2024/01/20 01:14:03;;;;;;;33.20;16.60;;;;;;;-1.92;100.00;102575.53;4997574;28;20849;-79
2024/01/20 01:16:30;;;;;;;37.03;17.17;;;;;;;-1.95;100.00;102576.16;4994813;28;20480;-79
2024/01/20 01:18:56;;;;;;;35.63;17.50;;;;;;;-1.96;100.00;102569.41;4994980;28;20046;-79
2024/01/20 01:21:23;;;;;;;39.90;18.20;;;;;;;-1.98;100.00;102568.94;4995417;28;20039;-79
2024/01/20 01:23:50;;;;;;;38.05;15.60;;;;;;;-1.99;100.00;102570.03;4998152;28;20050;-79
2024/01/20 01:26:17;;;;;;;31.40;15.43;;;;;;;-1.99;100.00;102577.09;4995764;28;20793;-79
2024/01/20 01:28:44;;;;;;;36.45;17.40;;;;;;;-2.01;100.00;102580.03;4994255;28;20066;-79
2024/01/20 01:31:11;;;;;;;34.25;16.02;;;;;;;-2.04;100.00;102572.81;4993955;28;20508;-79
2024/01/20 01:33:38;;;;;;;37.22;15.55;;;;;;;-2.05;100.00;102586.94;5006948;28;20765;-79
2024/01/20 01:36:05;;;;;;;33.13;16.35;;;;;;;-2.07;100.00;102589.84;4997716;28;20105;-79
2024/01/20 01:38:32;;;;;;;33.67;16.15;;;;;;;-2.07;100.00;102599.53;4992506;28;20099;-79
2024/01/20 01:40:58;;;;;;;32.25;15.63;;;;;;;-2.09;100.00;102599.84;4993088;28;20080;-79
2024/01/20 01:43:25;;;;;;;40.20;17.65;;;;;;;-2.10;100.00;102598.28;4997772;28;20776;-79
2024/01/20 01:45:52;;;;;;;37.17;15.88;;;;;;;-2.12;100.00;102603.06;4994207;28;20146;-79
2024/01/20 01:48:19;;;;;;;31.33;15.30;;;;;;;-2.12;100.00;102603.06;4995058;28;20043;-79
2024/01/20 01:50:46;;;;;;;35.78;17.20;;;;;;;-2.12;100.00;102605.66;4994228;28;20564;-79
2024/01/20 01:53:13;;;;;;;32.10;15.20;;;;;;;-2.13;100.00;102609.34;4991753;28;20051;-79
2024/01/20 01:55:40;;;;;;;25.40;15.02;;;;;;;-2.13;100.00;102609.34;4993899;28;20130;-79
2024/01/20 01:58:07;;;;;;;34.42;16.60;;;;;;;-2.14;100.00;102612.25;4991755;28;20058;-79
2024/01/20 02:00:34;;;;;;;31.40;15.48;;;;;;;-2.15;100.00;102608.13;4993986;28;20094;-79
2024/01/20 02:03:01;;;;;;;27.30;15.20;;;;;;;-2.16;100.00;102607.34;4994916;28;20047;-81
2024/01/20 02:05:28;;;;;;;41.08;17.55;;;;;;;-2.17;100.00;102613.63;4995056;28;20051;-80
2024/01/20 02:07:57;;;;;;;32.92;15.82;;;;;;;-2.18;100.00;102609.50;4995141;28;20057;-81
2024/01/20 02:10:24;;;;;;;34.03;15.88;;;;;;;-2.18;100.00;102611.34;4997105;28;20046;-79
2024/01/20 02:12:51;;;;;;;35.58;16.98;;;;;;;-2.20;100.00;102603.03;5001890;28;20055;-80
2024/01/20 02:15:18;;;;;;;33.00;15.77;;;;;;;-2.21;100.00;102607.50;4989737;28;20497;-76
2024/01/20 02:17:55;;;;;;;34.60;15.55;;;;;;;-2.20;100.00;102605.66;4991313;28;20051;-76
2024/01/20 02:20:23;;;;;;;37.00;15.65;;;;;;;-2.20;100.00;102603.03;4996714;28;20061;-76
2024/01/20 02:22:50;;;;;;;41.83;15.43;;;;;;;-2.22;100.00;102613.78;4990158;28;20082;-76
2024/01/20 02:25:17;;;;;;;31.02;15.80;;;;;;;-2.24;100.00;102605.50;4990352;28;20051;-76
2024/01/20 02:27:44;;;;;;;32.22;15.23;;;;;;;-2.23;100.00;102611.47;4990737;28;20053;-76
2024/01/20 02:30:11;;;;;;;32.30;16.08;;;;;;;-2.23;100.00;102606.25;4987035;28;20047;-77
2024/01/20 02:32:37;;;;;;;29.23;15.35;;;;;;;-2.25;100.00;102606.56;4991126;28;20047;-76
2024/01/20 02:35:05;;;;;;;30.98;14.90;;;;;;;-2.26;100.00;102610.25;4989400;28;20085;-76
2024/01/20 02:37:31;;;;;;;30.90;15.02;;;;;;;-2.27;100.00;102610.56;4989879;28;20531;-76
2024/01/20 02:39:58;;;;;;;38.83;16.90;;;;;;;-2.28;100.00;102624.69;4990089;28;20480;-76
2024/01/20 02:42:24;;;;;;;30.85;15.05;;;;;;;-2.30;100.00;102617.16;4990167;28;20395;-76
2024/01/20 02:44:51;;;;;;;36.13;15.20;;;;;;;-2.30;100.00;102621.59;4989421;28;20061;-76
2024/01/20 02:47:19;;;;;;;33.33;15.95;;;;;;;-2.32;100.00;102621.13;4996301;28;20061;-76
2024/01/20 02:49:45;;;;;;;25.80;13.20;;;;;;;-2.32;100.00;102621.13;4995817;28;20132;-76
2024/01/20 02:52:12;;;;;;;36.42;15.88;;;;;;;-2.35;100.00;102623.28;4992913;28;20047;-76
2024/01/20 02:54:39;;;;;;;33.92;15.10;;;;;;;-2.36;100.00;102623.59;4992796;28;20109;-76
2024/01/20 02:57:05;;;;;;;37.17;15.82;;;;;;;-2.38;100.00;102631.72;4993051;28;20565;-76
2024/01/20 02:59:32;;;;;;;33.60;16.02;;;;;;;-2.37;100.00;102627.28;4992742;28;20039;-76
2024/01/20 03:02:02;;;;;;;31.63;14.95;;;;;;;-2.38;100.00;102626.50;4993145;28;20051;-76
2024/01/20 03:04:29;;;;;;;25.63;13.70;;;;;;;-2.38;100.00;102628.34;4994373;28;20051;-76
2024/01/20 03:06:55;;;;;;;31.77;15.38;;;;;;;-2.39;100.00;102632.78;4992761;28;20051;-76
2024/01/20 03:09:22;;;;;;;29.08;13.07;;;;;;;-2.40;100.00;102620.81;4992249;28;20062;-75
2024/01/20 03:11:49;;;;;;;35.15;15.07;;;;;;;-2.42;100.00;102641.25;4993086;28;20137;-75
2024/01/20 03:14:16;;;;;;;30.05;14.95;;;;;;;-2.42;100.00;102640.47;4995643;28;20100;-76
2024/01/20 03:16:42;;;;;;;27.15;14.30;;;;;;;-2.44;100.00;102635.56;4993478;28;20051;-77
2024/01/20 03:19:09;;;;;;;31.95;14.32;;;;;;;-2.45;100.00;102635.88;4994213;28;20567;-77
2024/01/20 03:21:35;;;;;;;35.15;14.65;;;;;;;-2.46;100.00;102636.94;4993802;28;20737;-77
2024/01/20 03:24:02;;;;;;;27.73;12.60;;;;;;;-2.46;100.00;102631.72;4994424;28;20840;-77
2024/01/20 03:26:29;;;;;;;27.98;14.55;;;;;;;-2.48;100.00;102636.47;5000697;28;20047;-77
2024/01/20 03:28:55;;;;;;;30.70;15.43;;;;;;;-2.48;100.00;102631.25;4993808;28;20074;-77
2024/01/20 03:31:22;;;;;;;31.55;15.32;;;;;;;-2.49;100.00;102646.13;4993077;28;20086;-77
2024/01/20 03:33:48;;;;;;;27.88;13.48;;;;;;;-2.50;100.00;102647.22;4996983;28;20516;-77
2024/01/20 03:36:15;;;;;;;29.85;13.80;;;;;;;-2.50;100.00;102649.06;4995213;28;20046;-78
2024/01/20 03:38:42;;;;;;;33.60;14.27;;;;;;;-2.50;100.00;102651.66;4992332;28;20061;-77
2024/01/20 03:41:08;;;;;;;32.17;14.70;;;;;;;-2.53;100.00;102647.06;5000026;28;20047;-77
2024/01/20 03:43:35;;;;;;;27.35;13.88;;;;;;;-2.52;100.00;102645.97;4992453;28;20160;-77
2024/01/20 03:46:01;;;;;;;27.48;13.07;;;;;;;-2.53;100.00;102642.59;4993730;28;20054;-78
2024/01/20 03:48:28;;;;;;;25.83;12.88;;;;;;;-2.54;100.00;102642.91;4996730;28;20082;-77
2024/01/20 03:50:55;;;;;;;27.13;13.30;;;;;;;-2.54;100.00;102643.66;4992521;28;20409;-77
2024/01/20 03:53:22;;;;;;;28.10;13.07;;;;;;;-2.54;100.00;102646.28;4993145;28;20053;-76
2024/01/20 03:55:48;;;;;;;26.42;12.38;;;;;;;-2.54;100.00;102648.88;4993190;28;20039;-77
2024/01/20 03:58:15;;;;;;;28.67;13.55;;;;;;;-2.54;100.00;102650.72;4992877;28;20070;-76
2024/01/20 04:00:43;;;;;;;36.10;13.70;;;;;;;-2.53;100.00;102641.84;4992067;28;20168;-76
2024/01/20 04:03:10;;;;;;;30.52;13.00;;;;;;;-2.54;100.00;102646.28;4993288;28;20043;-76
2024/01/20 04:05:39;;;;;;;29.35;13.25;;;;;;;-2.54;100.00;102646.28;4991769;28;20451;-75
2024/01/20 04:08:05;;;;;;;30.13;13.27;;;;;;;-2.54;100.00;102650.72;4994427;28;20069;-75
2024/01/20 04:10:32;;;;;;;25.00;11.77;;;;;;;-2.55;100.00;102654.41;4990695;28;20142;-75
2024/01/20 04:12:58;;;;;;;24.73;12.35;;;;;;;-2.55;100.00;102655.19;4993072;28;20493;-76
2024/01/20 04:15:25;;;;;;;33.38;13.02;;;;;;;-2.55;100.00;102667.44;4991519;28;20593;-75
2024/01/20 04:17:52;;;;;;;24.92;12.93;;;;;;;-2.55;100.00;102660.38;4992373;28;20085;-77
2024/01/20 04:20:19;;;;;;;22.00;11.13;;;;;;;-2.56;100.00;102660.69;4992609;28;20218;-76
2024/01/20 04:22:46;;;;;;;30.15;12.65;;;;;;;-2.56;100.00;102671.13;4992287;28;20053;-76
2024/01/20 04:25:13;;;;;;;27.85;12.20;;;;;;;-2.56;100.00;102674.50;4991852;28;20104;-76
2024/01/20 04:27:40;;;;;;;27.45;14.13;;;;;;;-2.57;100.00;102672.19;4995679;28;20046;-76
2024/01/20 04:30:09;;;;;;;27.50;12.93;;;;;;;-2.57;100.00;102678.19;4992624;28;20796;-76
2024/01/20 04:32:36;;;;;;;28.67;12.20;;;;;;;-2.58;100.00;102674.03;4993831;28;20474;-76
2024/01/20 04:35:06;;;;;;;25.30;12.15;;;;;;;-2.59;100.00;102672.50;4993709;28;20093;-75
2024/01/20 04:37:33;;;;;;;31.17;12.98;;;;;;;-2.59;100.00;102676.94;4992035;28;20055;-75
2024/01/20 04:40:00;;;;;;;26.45;12.82;;;;;;;-2.60;100.00;102678.78;4992154;28;20122;-76
2024/01/20 04:42:26;;;;;;;33.58;13.25;;;;;;;-2.60;100.00;102683.22;4990461;28;20075;-76
2024/01/20 04:44:53;;;;;;;30.17;12.75;;;;;;;-2.61;100.00;102689.50;4991879;28;20130;-76
2024/01/20 04:47:21;;;;;;;24.67;13.68;;;;;;;-2.62;100.00;102693.97;4991608;28;20043;-77
2024/01/20 04:49:53;;;;;;;26.17;11.68;;;;;;;-2.62;100.00;102685.38;4995109;28;20108;-77
2024/01/20 04:52:20;;;;;;;24.48;13.13;;;;;;;-2.62;100.00;102695.78;4990490;28;20038;-77
2024/01/20 04:54:46;;;;;;;22.42;11.10;;;;;;;-2.62;100.00;102698.41;4992931;28;20039;-77
2024/01/20 04:57:13;;;;;;;28.42;12.60;;;;;;;-2.64;100.00;102684.91;4992973;28;20139;-75
2024/01/20 04:59:40;;;;;;;24.27;12.15;;;;;;;-2.63;100.00;102691.66;4991992;28;20126;-75
2024/01/20 05:02:06;;;;;;;29.25;11.40;;;;;;;-2.65;100.00;102697.16;4992960;28;20544;-77
2024/01/20 05:04:33;;;;;;;23.60;12.15;;;;;;;-2.65;100.00;102689.34;4992260;28;20039;-77
2024/01/20 05:07:00;;;;;;;27.10;12.52;;;;;;;-2.65;100.00;102694.56;4992334;28;20557;-76
2024/01/20 05:09:26;;;;;;;32.53;13.80;;;;;;;-2.66;100.00;102695.63;4987824;28;20082;-75
2024/01/20 05:11:53;;;;;;;26.73;12.45;;;;;;;-2.66;100.00;102692.25;4992207;28;20491;-75
2024/01/20 05:14:20;;;;;;;27.50;13.50;;;;;;;-2.67;100.00;102701.91;4991757;28;20051;-75
2024/01/20 05:16:47;;;;;;;29.85;12.63;;;;;;;-2.67;100.00;102699.31;4991099;28;20047;-75
2024/01/20 05:19:14;;;;;;;25.63;12.38;;;;;;;-2.69;100.00;102699.59;4994741;28;20129;-75
2024/01/20 05:21:40;;;;;;;29.88;12.73;;;;;;;-2.67;100.00;102706.34;4991537;28;20058;-75
2024/01/20 05:24:07;;;;;;;27.23;11.57;;;;;;;-2.67;100.00;102708.97;4991710;28;20500;-75
2024/01/20 05:26:34;;;;;;;31.80;12.63;;;;;;;-2.66;100.00;102707.91;4991042;28;20140;-75
2024/01/20 05:29:00;;;;;;;27.83;12.18;;;;;;;-2.66;100.00;102715.72;4991361;28;20051;-75
2024/01/20 05:31:31;;;;;;;35.58;14.10;;;;;;;-2.67;100.00;102712.34;4994191;28;20049;-75
2024/01/20 05:33:58;;;;;;;32.13;14.35;;;;;;;-2.67;100.00;102712.34;4991287;28;20094;-75
2024/01/20 05:36:25;;;;;;;33.85;13.98;;;;;;;-2.67;100.00;102712.34;4991309;28;20121;-75
2024/01/20 05:38:52;;;;;;;29.38;12.27;;;;;;;-2.67;100.00;102706.34;4991395;28;20046;-75
2024/01/20 05:41:18;;;;;;;29.98;12.68;;;;;;;-2.67;100.00;102717.56;4990585;28;20054;-75
2024/01/20 05:43:45;;;;;;;28.20;13.35;;;;;;;-2.66;100.00;102707.91;4991412;28;20074;-75
2024/01/20 05:46:12;;;;;;;26.38;12.50;;;;;;;-2.67;100.00;102714.94;4986148;28;20047;-75
2024/01/20 05:48:38;;;;;;;24.80;12.02;;;;;;;-2.65;100.00;102717.25;4990696;28;20120;-76
2024/01/20 05:51:05;;;;;;;32.20;14.85;;;;;;;-2.66;100.00;102719.09;4990564;28;20482;-76
2024/01/20 05:53:32;;;;;;;32.75;12.50;;;;;;;-2.65;100.00;102720.63;4990941;28;20143;-75
2024/01/20 05:55:58;;;;;;;31.70;13.35;;;;;;;-2.64;100.00;102721.41;4991196;28;20114;-76
2024/01/20 05:58:25;;;;;;;29.27;12.55;;;;;;;-2.64;100.00;102716.19;4994306;28;20042;-76
2024/01/20 06:00:52;;;;;;;27.48;11.95;;;;;;;-2.64;100.00;102716.94;4991366;28;20043;-76
2024/01/20 06:03:18;;;;;;;25.60;12.07;;;;;;;-2.64;100.00;102727.38;4997564;28;20057;-77
2024/01/20 06:05:45;;;;;;;31.60;14.25;;;;;;;-2.64;100.00;102722.16;4989227;28;20047;-77
2024/01/20 06:08:12;;;;;;;29.70;12.90;;;;;;;-2.64;100.00;102727.38;4990497;28;20058;-77
2024/01/20 06:10:39;;;;;;;28.98;12.25;;;;;;;-2.66;100.00;102726.16;4990486;28;20055;-76
2024/01/20 06:13:05;;;;;;;23.92;11.98;;;;;;;-2.66;100.00;102726.16;4990735;28;20054;-76
2024/01/20 06:15:32;;;;;;;27.75;13.10;;;;;;;-2.66;100.00;102731.38;4989686;28;20051;-77
2024/01/20 06:17:59;;;;;;;22.67;11.82;;;;;;;-2.66;100.00;102731.38;4995408;28;20074;-78
2024/01/20 06:20:26;;;;;;;24.23;11.38;;;;;;;-2.67;100.00;102733.19;4995101;28;20105;-77
2024/01/20 06:22:52;;;;;;;28.95;13.02;;;;;;;-2.66;100.00;102733.97;4989667;28;20051;-76
2024/01/20 06:25:19;;;;;;;23.65;12.43;;;;;;;-2.67;100.00;102737.66;4991196;28;20058;-77
2024/01/20 06:27:46;;;;;;;27.38;11.43;;;;;;;-2.67;100.00;102735.03;4989219;28;20084;-77
2024/01/20 06:30:12;;;;;;;27.02;13.13;;;;;;;-2.66;100.00;102734.75;4991701;28;20043;-77
2024/01/20 06:32:39;;;;;;;24.20;11.80;;;;;;;-2.64;100.00;102734.44;4994848;28;20047;-77
2024/01/20 06:35:07;;;;;;;27.40;11.80;;;;;;;-2.66;100.00;102726.91;4992447;28;20050;-77
2024/01/20 06:37:34;;;;;;;26.52;11.07;;;;;;;-2.67;100.00;102733.19;4988121;28;20054;-76
2024/01/20 06:40:01;;;;;;;26.70;11.57;;;;;;;-2.66;100.00;102742.56;4990775;28;20568;-75
2024/01/20 06:42:27;;;;;;;25.15;12.15;;;;;;;-2.66;100.00;102733.97;4990238;28;20051;-76
2024/01/20 06:44:54;;;;;;;20.20;10.38;;;;;;;-2.65;100.00;102727.69;4992691;28;20751;-77
2024/01/20 06:47:23;;;;;;;26.15;11.52;;;;;;;-2.64;100.00;102734.44;4990358;28;20514;-77
2024/01/20 06:49:50;;;;;;;23.65;11.27;;;;;;;-2.64;100.00;102731.84;4988803;28;20114;-77
2024/01/20 06:52:16;;;;;;;23.58;11.77;;;;;;;-2.64;100.00;102742.25;4991271;28;20043;-75
2024/01/20 06:54:43;;;;;;;20.23;10.18;;;;;;;-2.63;100.00;102733.38;4991573;28;20047;-76
2024/01/20 06:57:10;;;;;;;24.80;11.80;;;;;;;-2.61;100.00;102745.03;4988851;28;20043;-79
2024/01/20 06:59:37;;;;;;;24.10;10.95;;;;;;;-2.61;100.00;102744.28;4991925;28;20074;-77
2024/01/20 07:02:03;;;;;;;25.95;10.88;;;;;;;-2.61;100.00;102746.88;4992570;28;20043;-77
2024/01/20 07:04:30;;;;;;;21.30;11.50;;;;;;;-2.61;100.00;102757.31;4991856;28;20046;-77
2024/01/20 07:06:57;;;;;;;29.10;10.65;;;;;;;-2.62;100.00;102756.53;4987430;28;20058;-78
2024/01/20 07:09:25;;;;;;;25.13;11.70;;;;;;;-2.61;100.00;102762.53;4990246;28;20069;-77
2024/01/20 07:11:55;;;;;;;20.38;10.13;;;;;;;-2.60;100.00;102751.03;4993889;28;20051;-77
2024/01/20 07:14:23;;;;;;;15.95;9.00;;;;;;;-2.59;100.00;102749.97;4993326;28;20125;-78
2024/01/20 07:16:50;;;;;;;24.70;10.98;;;;;;;-2.59;100.00;102750.72;5001979;28;20046;-79
2024/01/20 07:19:16;;;;;;;16.45;9.02;;;;;;;-2.59;100.00;102747.34;4997460;28;20051;-78
2024/01/20 07:21:43;;;;;;;21.73;10.38;;;;;;;-2.59;100.00;102745.50;4991883;28;20162;-78
2024/01/20 07:24:09;;;;;;;24.48;11.23;;;;;;;-2.60;100.00;102751.78;4995955;28;20105;-78
2024/01/20 07:26:39;;;;;;;23.13;10.63;;;;;;;-2.59;100.00;102755.16;4996032;28;20054;-79
2024/01/20 07:29:05;;;;;;;22.17;11.25;;;;;;;-2.60;100.00;102754.41;4998232;28;20079;-78
2024/01/20 07:31:32;;;;;;;22.30;11.25;;;;;;;-2.60;100.00;102759.63;4998540;28;20856;-77
2024/01/20 07:33:58;;;;;;;21.65;10.27;;;;;;;-2.59;100.00;102766.38;4998569;28;20061;-78
2024/01/20 07:36:25;;;;;;;21.02;9.90;;;;;;;-2.58;100.00;102759.31;4994363;28;20051;-76
2024/01/20 07:38:52;;;;;;;22.33;10.63;;;;;;;-2.56;100.00;102768.38;4994194;28;20051;-77
2024/01/20 07:41:18;;;;;;;22.70;10.18;;;;;;;-2.54;100.00;102768.84;5001662;28;20051;-81
2024/01/20 07:43:45;;;;;;;18.95;10.60;;;;;;;-2.53;100.00;102773.00;4995261;28;20092;-80
2024/01/20 07:46:12;;;;;;;19.27;9.65;;;;;;;-2.50;100.00;102769.78;5001701;28;20086;-79
2024/01/20 07:48:39;;;;;;;24.38;10.82;;;;;;;-2.46;100.00;102764.75;4998080;28;20057;-83
2024/01/20 07:51:07;;;;;;;30.50;10.52;;;;;;;-2.42;100.00;102771.69;4998123;28;20043;-82
2024/01/20 07:53:34;;;;;;;28.35;9.93;;;;;;;-2.37;100.00;102773.34;4998682;28;20078;-79
2024/01/20 07:56:02;;;;;;;28.02;9.43;;;;;;;-2.33;100.00;102773.53;4998225;28;20035;-80
2024/01/20 07:58:28;;;;;;;22.00;9.75;;;;;;;-2.30;100.00;102783.34;4996421;28;20051;-80
2024/01/20 08:00:55;;;;;;;22.80;10.27;;;;;;;-2.27;100.00;102775.69;4997705;28;20043;-81
2024/01/20 08:03:22;;;;;;;14.80;7.22;;;;;;;-2.23;100.00;102773.25;5004856;28;20049;-80
2024/01/20 08:05:49;;;;;;;22.83;9.95;;;;;;;-2.20;100.00;102776.03;4998202;28;20050;-79
2024/01/20 08:08:17;;;;;;;18.70;10.07;;;;;;;-2.17;100.00;102785.09;4997257;28;20065;-78
2024/01/20 08:10:44;;;;;;;23.42;10.85;;;;;;;-2.13;100.00;102776.38;4997030;28;20108;-78
2024/01/20 08:13:11;;;;;;;20.75;8.85;;;;;;;-2.11;100.00;102766.41;4995487;28;20051;-79
2024/01/20 08:15:37;;;;;;;23.88;11.07;;;;;;;-2.07;100.00;102764.72;4996222;28;20130;-80
2024/01/20 08:18:04;;;;;;;18.58;10.25;;;;;;;-2.02;100.00;102764.56;4999533;28;20053;-78
2024/01/20 08:20:31;;;;;;;23.50;10.85;;;;;;;-1.95;100.00;102774.53;4997611;28;20081;-78
2024/01/20 08:22:59;;;;;;;18.25;10.27;;;;;;;-1.91;100.00;102775.47;4996559;28;20176;-78
2024/01/20 08:25:25;;;;;;;24.73;10.10;;;;;;;-1.86;100.00;102783.16;4996627;28;20058;-77
2024/01/20 08:27:52;;;;;;;27.75;11.45;;;;;;;-1.84;100.00;102781.03;4995154;28;20089;-78
2024/01/20 08:30:19;;;;;;;20.13;9.70;;;;;;;-1.78;100.00;102792.88;4994613;28;20516;-80
2024/01/20 08:32:45;;;;;;;20.15;9.32;;;;;;;-1.71;100.00;102795.81;4986265;28;20047;-81
2024/01/20 08:35:12;;;;;;;23.02;9.93;;;;;;;-1.71;100.00;102785.34;4994765;28;20055;-80
2024/01/20 08:37:39;;;;;;;21.77;10.90;;;;;;;-1.71;100.00;102781.97;4996349;28;20042;-80
2024/01/20 08:40:06;;;;;;;32.58;10.25;;;;;;;-1.68;100.00;102778.75;4995163;28;20518;-79
2024/01/20 08:42:32;;;;;;;21.15;10.65;;;;;;;-1.65;100.00;102785.22;4995291;28;20054;-74
2024/01/20 08:44:59;;;;;;;18.33;8.13;;;;;;;-1.60;100.00;102795.50;4994934;28;20039;-77
2024/01/20 08:47:27;;;;;;;28.67;10.82;;;;;;;-1.58;100.00;102804.56;4995302;28;20061;-76
2024/01/20 08:49:53;;;;;;;22.88;9.60;;;;;;;-1.54;100.00;102799.50;4996130;28;20051;-78
2024/01/20 08:52:20;;;;;;;22.02;9.77;;;;;;;-1.52;100.00;102808.56;4993630;28;20106;-79
2024/01/20 08:54:47;;;;;;;19.92;10.80;;;;;;;-1.49;100.00;102807.19;5080060;28;20757;-80
2024/01/20 08:57:16;;;;;;;21.50;10.75;;;;;;;-1.47;100.00;102807.66;4996092;28;20051;-80
2024/01/20 08:59:42;;;;;;;20.25;10.18;;;;;;;-1.45;100.00;102803.66;4980815;28;20062;-78
2024/01/20 09:02:09;;;;;;;20.13;8.90;;;;;;;-1.42;100.00;102812.72;4993649;28;20235;-79
2024/01/20 09:04:36;;;;;;;24.83;11.05;;;;;;;-1.40;100.00;102813.94;4993478;28;20788;-78
2024/01/20 09:07:02;;;;;;;23.52;10.52;;;;;;;-1.35;100.00;102826.09;4993540;28;20051;-77
2024/01/20 09:09:29;;;;;;;18.42;9.52;;;;;;;-1.36;100.00;102824.56;4995323;28;20451;-77
2024/01/20 09:11:56;;;;;;;22.52;10.25;;;;;;;-1.34;100.00;102822.41;4992368;28;20045;-77
2024/01/20 09:14:22;;;;;;;22.17;9.82;;;;;;;-1.31;100.00;102823.66;4990863;28;20043;-78
2024/01/20 09:16:49;;;;;;;23.30;9.98;;;;;;;-1.31;100.00;102827.03;4994299;28;20057;-77
2024/01/20 09:19:15;;;;;;;23.75;11.68;;;;;;;-1.27;100.00;102833.19;4995211;28;20047;-78
2024/01/20 09:21:46;;;;;;;24.10;10.93;;;;;;;-1.25;100.00;102833.63;4996185;28;20043;-77
2024/01/20 09:24:13;;;;;;;21.65;10.20;;;;;;;-1.22;100.00;102838.25;4996166;28;20069;-80
2024/01/20 09:26:40;;;;;;;23.73;10.82;;;;;;;-1.21;100.00;102842.41;4996690;28;20854;-80
2024/01/20 09:29:08;;;;;;;19.88;11.85;;;;;;;-1.16;100.00;102846.69;4996137;28;20502;-81
2024/01/20 09:31:35;;;;;;;20.15;9.73;;;;;;;-1.15;100.00;102854.22;5008857;28;20069;-82
2024/01/20 09:34:01;;;;;;;27.38;10.25;;;;;;;-1.13;100.00;102852.06;5003002;28;20646;-83
2024/01/20 09:36:28;;;;;;;24.30;10.35;;;;;;;-1.10;100.00;102859.31;4996711;28;20265;-83
2024/01/20 09:38:55;;;;;;;24.55;11.52;;;;;;;-1.05;100.00;102853.91;4995436;28;20047;-83
2024/01/20 09:41:23;;;;;;;22.10;11.55;;;;;;;-0.97;100.00;102859.47;4988119;28;20039;-81
2024/01/20 09:43:50;;;;;;;26.45;10.70;;;;;;;-0.91;100.00;102848.53;4989872;28;20051;-81
2024/01/20 09:46:17;;;;;;;22.58;11.52;;;;;;;-0.86;100.00;102850.22;4998055;28;20047;-80
2024/01/20 09:48:44;;;;;;;21.77;10.20;;;;;;;-0.81;100.00;102842.22;4996630;28;20051;-79
2024/01/20 09:51:11;;;;;;;29.40;13.02;;;;;;;-0.72;100.00;102854.19;5000666;28;20050;-78
2024/01/20 09:53:38;;;;;;;26.17;11.95;;;;;;;-0.59;100.00;102851.72;5004856;28;20081;-78
2024/01/20 09:56:05;;;;;;;22.60;11.55;;;;;;;-0.52;100.00;102847.53;5008519;28;20073;-80
2024/01/20 09:58:35;;;;;;;25.67;11.82;;;;;;;-0.49;100.00;102852.16;5005124;28;20051;-83
2024/01/20 10:01:02;;;;;;;21.27;12.27;;;;;;;-0.48;100.00;102856.31;5019578;28;20050;-79
2024/01/20 10:03:32;;;;;;;25.55;11.90;;;;;;;-0.45;100.00;102862.75;4992920;28;20050;-78
2024/01/20 10:05:59;;;;;;;27.30;12.02;;;;;;;-0.44;100.00;102870.31;4997574;28;20047;-78
2024/01/20 10:08:26;;;;;;;23.95;12.20;;;;;;;-0.45;100.00;102878.47;4988253;28;20043;-78
2024/01/20 10:11:05;;;;;;;24.38;12.23;;;;;;;-0.36;100.00;102873.97;4990232;28;20058;-78
2024/01/20 10:13:32;;;;;;;20.92;11.77;;;;;;;-0.29;100.00;102863.78;4989339;28;20118;-77
2024/01/20 10:15:58;;;;;;;25.90;13.60;;;;;;;-0.19;100.00;102876.53;4992177;28;20776;-77
2024/01/20 10:18:25;;;;;;;24.70;12.50;;;;;;;-0.12;100.00;102873.44;4991373;28;20105;-77
2024/01/20 10:21:03;;;;;;;30.60;13.25;;;;;;;-0.10;100.00;102872.03;4996732;28;20065;-80
2024/01/20 10:23:33;;;;;;;22.25;11.80;;;;;;;-0.09;100.00;102875.41;4996933;28;20061;-79
2024/01/20 10:26:05;;;;;;;26.30;12.95;;;;;;;-0.04;100.00;102870.00;4994892;28;20085;-79
2024/01/20 10:28:33;;;;;;;21.23;12.27;;;;;;;0.06;100.00;102872.25;4996122;28;20051;-79
2024/01/20 10:31:10;;;;;;;18.83;10.65;;;;;;;0.09;100.00;102869.00;5001358;28;20090;-79
2024/01/20 10:33:37;;;;;;;22.00;11.93;;;;;;;0.09;100.00;102878.72;5002243;28;20049;-78
2024/01/20 10:36:06;;;;;;;25.70;12.23;;;;;;;0.13;100.00;102884.88;4994940;28;20429;-78
2024/01/20 10:38:42;;;;;;;22.90;12.15;;;;;;;0.16;100.00;102892.88;4994540;28;20070;-79
2024/01/20 10:41:13;;;;;;;20.80;11.48;;;;;;;0.23;100.00;102884.50;4983537;28;20058;-78
2024/01/20 10:43:48;;;;;;;25.25;12.25;;;;;;;0.19;100.00;102888.84;4999250;28;20583;-77
2024/01/20 10:46:23;;;;;;;21.45;11.45;;;;;;;0.17;100.00;102878.69;4993587;28;20055;-77
2024/01/20 10:48:53;;;;;;;26.20;12.70;;;;;;;0.19;100.00;102883.59;5002690;28;20797;-78
2024/01/20 10:51:27;;;;;;;26.83;12.05;;;;;;;0.21;100.00;102886.69;5004525;28;20391;-79
2024/01/20 10:53:56;;;;;;;20.60;11.13;;;;;;;0.27;100.00;102882.81;5000260;28;20051;-77
2024/01/20 10:56:24;;;;;;;23.20;12.02;;;;;;;0.30;100.00;102882.94;4997961;28;20146;-77
2024/01/20 10:59:08;;;;;;;20.45;11.40;;;;;;;0.30;100.00;102882.16;4995891;28;20082;-77
2024/01/20 11:01:36;;;;;;;24.17;11.63;;;;;;;0.34;100.00;102877.84;4995368;28;20062;-78
2024/01/20 11:04:03;;;;;;;17.00;9.52;;;;;;;0.30;100.00;102884.78;4996451;28;20529;-79